sensor_id;sensor_type;location;lat;lon;timestamp;temperature;humidity
3001;DHT22;1510;51.072;6.678;2022-07-29T00:00:06;16.50;35.00
3001;DHT22;1510;51.072;6.678;2022-07-29T00:02:33;16.50;35.20
3001;DHT22;1510;51.072;6.678;2022-07-29T00:05:00;16.50;34.30
3001;DHT22;1510;51.072;6.678;2022-07-29T00:07:28;16.50;34.60
3001;DHT22;1510;51.072;6.678;2022-07-29T00:09:54;16.60;33.70
3001;DHT22;1510;51.072;6.678;2022-07-29T00:12:23;16.70;33.60
3001;DHT22;1510;51.072;6.678;2022-07-29T00:14:50;16.60;33.00
3001;DHT22;1510;51.072;6.678;2022-07-29T00:17:17;16.70;33.20
3001;DHT22;1510;51.072;6.678;2022-07-29T00:19:44;16.80;32.10
3001;DHT22;1510;51.072;6.678;2022-07-29T00:22:11;16.90;31.00
3001;DHT22;1510;51.072;6.678;2022-07-29T00:24:39;16.90;30.40
3001;DHT22;1510;51.072;6.678;2022-07-29T00:27:05;17.00;30.80
3001;DHT22;1510;51.072;6.678;2022-07-29T00:29:32;16.90;31.00
3001;DHT22;1510;51.072;6.678;2022-07-29T00:31:59;16.90;30.50
3001;DHT22;1510;51.072;6.678;2022-07-29T00:34:26;17.00;31.10
3001;DHT22;1510;51.072;6.678;2022-07-29T00:37:10;17.00;30.60
3001;DHT22;1510;51.072;6.678;2022-07-29T00:39:36;17.00;31.20
3001;DHT22;1510;51.072;6.678;2022-07-29T00:42:05;17.00;31.20
3001;DHT22;1510;51.072;6.678;2022-07-29T00:44:36;17.00;28.30
3001;DHT22;1510;51.072;6.678;2022-07-29T00:47:04;17.20;28.20
3001;DHT22;1510;51.072;6.678;2022-07-29T00:49:30;17.10;28.00
3001;DHT22;1510;51.072;6.678;2022-07-29T00:51:57;17.20;29.20
3001;DHT22;1510;51.072;6.678;2022-07-29T00:54:24;17.20;28.40
3001;DHT22;1510;51.072;6.678;2022-07-29T00:56:52;17.20;28.20
3001;DHT22;1510;51.072;6.678;2022-07-29T00:59:20;17.20;28.50
3001;DHT22;1510;51.072;6.678;2022-07-29T01:01:47;17.20;28.50
3001;DHT22;1510;51.072;6.678;2022-07-29T01:04:14;17.20;29.40
3001;DHT22;1510;51.072;6.678;2022-07-29T01:06:41;17.20;29.30
3001;DHT22;1510;51.072;6.678;2022-07-29T01:09:09;17.10;28.60
3001;DHT22;1510;51.072;6.678;2022-07-29T01:11:38;17.10;29.10
3001;DHT22;1510;51.072;6.678;2022-07-29T01:14:05;17.10;30.40
3001;DHT22;1510;51.072;6.678;2022-07-29T01:16:38;17.10;29.50
3001;DHT22;1510;51.072;6.678;2022-07-29T01:19:16;17.00;28.90
3001;DHT22;1510;51.072;6.678;2022-07-29T01:21:51;17.00;28.40
3001;DHT22;1510;51.072;6.678;2022-07-29T01:24:39;17.10;28.70
3001;DHT22;1510;51.072;6.678;2022-07-29T01:27:22;17.00;28.10
3001;DHT22;1510;51.072;6.678;2022-07-29T01:29:56;17.00;29.80
3001;DHT22;1510;51.072;6.678;2022-07-29T01:32:26;17.10;29.10
3001;DHT22;1510;51.072;6.678;2022-07-29T01:34:57;17.10;29.30
3001;DHT22;1510;51.072;6.678;2022-07-29T01:37:28;17.00;30.80
3001;DHT22;1510;51.072;6.678;2022-07-29T01:39:57;16.90;36.30
3001;DHT22;1510;51.072;6.678;2022-07-29T01:42:29;16.80;36.80
3001;DHT22;1510;51.072;6.678;2022-07-29T01:45:02;16.50;38.30
3001;DHT22;1510;51.072;6.678;2022-07-29T01:47:37;16.50;39.30
3001;DHT22;1510;51.072;6.678;2022-07-29T01:50:08;16.40;40.00
3001;DHT22;1510;51.072;6.678;2022-07-29T01:52:41;16.40;40.80
3001;DHT22;1510;51.072;6.678;2022-07-29T01:55:12;16.30;40.90
3001;DHT22;1510;51.072;6.678;2022-07-29T01:57:43;16.40;41.00
3001;DHT22;1510;51.072;6.678;2022-07-29T02:00:13;16.40;41.10
3001;DHT22;1510;51.072;6.678;2022-07-29T02:02:42;16.30;40.90
3001;DHT22;1510;51.072;6.678;2022-07-29T02:05:12;16.50;42.20
3001;DHT22;1510;51.072;6.678;2022-07-29T02:07:40;16.30;43.20
3001;DHT22;1510;51.072;6.678;2022-07-29T02:10:09;16.30;42.70
3001;DHT22;1510;51.072;6.678;2022-07-29T02:12:38;16.40;42.90
3001;DHT22;1510;51.072;6.678;2022-07-29T02:15:06;16.40;45.40
3001;DHT22;1510;51.072;6.678;2022-07-29T02:17:39;16.40;42.40
3001;DHT22;1510;51.072;6.678;2022-07-29T02:20:08;16.50;41.10
3001;DHT22;1510;51.072;6.678;2022-07-29T02:22:37;16.70;38.70
3001;DHT22;1510;51.072;6.678;2022-07-29T02:25:07;16.80;36.40
3001;DHT22;1510;51.072;6.678;2022-07-29T02:27:35;16.90;34.30
3001;DHT22;1510;51.072;6.678;2022-07-29T02:30:05;16.80;33.60
3001;DHT22;1510;51.072;6.678;2022-07-29T02:32:35;17.00;35.20
3001;DHT22;1510;51.072;6.678;2022-07-29T02:35:04;16.90;33.40
3001;DHT22;1510;51.072;6.678;2022-07-29T02:37:32;16.90;33.10
3001;DHT22;1510;51.072;6.678;2022-07-29T02:39:59;17.00;33.70
3001;DHT22;1510;51.072;6.678;2022-07-29T02:42:27;16.80;36.70
3001;DHT22;1510;51.072;6.678;2022-07-29T02:44:55;16.70;35.10
3001;DHT22;1510;51.072;6.678;2022-07-29T02:47:30;16.80;37.60
3001;DHT22;1510;51.072;6.678;2022-07-29T02:50:04;16.60;40.40
3001;DHT22;1510;51.072;6.678;2022-07-29T02:52:39;16.50;41.10
3001;DHT22;1510;51.072;6.678;2022-07-29T02:55:13;16.40;41.00
3001;DHT22;1510;51.072;6.678;2022-07-29T02:57:43;16.50;43.60
3001;DHT22;1510;51.072;6.678;2022-07-29T03:00:11;16.40;42.40
3001;DHT22;1510;51.072;6.678;2022-07-29T03:02:42;16.40;42.30
3001;DHT22;1510;51.072;6.678;2022-07-29T03:05:15;16.50;39.50
3001;DHT22;1510;51.072;6.678;2022-07-29T03:07:45;16.60;35.70
3001;DHT22;1510;51.072;6.678;2022-07-29T03:10:13;16.70;38.20
3001;DHT22;1510;51.072;6.678;2022-07-29T03:12:41;16.80;36.80
3001;DHT22;1510;51.072;6.678;2022-07-29T03:15:09;16.70;38.80
3001;DHT22;1510;51.072;6.678;2022-07-29T03:17:37;16.60;40.10
3001;DHT22;1510;51.072;6.678;2022-07-29T03:20:06;16.60;38.10
3001;DHT22;1510;51.072;6.678;2022-07-29T03:22:39;16.60;37.80
3001;DHT22;1510;51.072;6.678;2022-07-29T03:25:09;16.50;38.50
3001;DHT22;1510;51.072;6.678;2022-07-29T03:27:38;16.50;38.90
3001;DHT22;1510;51.072;6.678;2022-07-29T03:30:06;16.50;38.50
3001;DHT22;1510;51.072;6.678;2022-07-29T03:32:33;16.50;38.30
3001;DHT22;1510;51.072;6.678;2022-07-29T03:35:00;16.50;38.20
3001;DHT22;1510;51.072;6.678;2022-07-29T03:37:27;16.40;40.90
3001;DHT22;1510;51.072;6.678;2022-07-29T03:39:57;16.20;40.80
3001;DHT22;1510;51.072;6.678;2022-07-29T03:42:27;16.20;43.80
3001;DHT22;1510;51.072;6.678;2022-07-29T03:44:56;16.10;46.00
3001;DHT22;1510;51.072;6.678;2022-07-29T03:47:25;15.90;48.10
3001;DHT22;1510;51.072;6.678;2022-07-29T03:49:56;15.70;49.20
3001;DHT22;1510;51.072;6.678;2022-07-29T03:52:25;15.80;48.60
3001;DHT22;1510;51.072;6.678;2022-07-29T03:54:52;15.70;49.20
3001;DHT22;1510;51.072;6.678;2022-07-29T03:57:24;15.60;49.10
3001;DHT22;1510;51.072;6.678;2022-07-29T03:59:52;15.70;51.40
3001;DHT22;1510;51.072;6.678;2022-07-29T04:02:19;15.60;53.10
3001;DHT22;1510;51.072;6.678;2022-07-29T04:04:47;15.60;53.60
3001;DHT22;1510;51.072;6.678;2022-07-29T04:07:14;15.50;52.60
3001;DHT22;1510;51.072;6.678;2022-07-29T04:09:41;15.50;52.80
3001;DHT22;1510;51.072;6.678;2022-07-29T04:12:09;15.50;53.30
3001;DHT22;1510;51.072;6.678;2022-07-29T04:14:37;15.60;54.50
3001;DHT22;1510;51.072;6.678;2022-07-29T04:17:04;15.50;55.50
3001;DHT22;1510;51.072;6.678;2022-07-29T04:19:32;15.40;58.60
3001;DHT22;1510;51.072;6.678;2022-07-29T04:22:00;15.20;61.20
3001;DHT22;1510;51.072;6.678;2022-07-29T04:24:27;15.20;63.60
3001;DHT22;1510;51.072;6.678;2022-07-29T04:26:54;15.20;65.10
3001;DHT22;1510;51.072;6.678;2022-07-29T04:29:21;15.10;67.30
3001;DHT22;1510;51.072;6.678;2022-07-29T04:31:49;15.10;68.80
3001;DHT22;1510;51.072;6.678;2022-07-29T04:34:16;15.10;69.50
3001;DHT22;1510;51.072;6.678;2022-07-29T04:36:43;15.10;69.60
3001;DHT22;1510;51.072;6.678;2022-07-29T04:39:09;15.10;69.80
3001;DHT22;1510;51.072;6.678;2022-07-29T04:41:36;15.20;69.30
3001;DHT22;1510;51.072;6.678;2022-07-29T04:44:04;15.30;69.90
3001;DHT22;1510;51.072;6.678;2022-07-29T04:46:31;15.10;71.50
3001;DHT22;1510;51.072;6.678;2022-07-29T04:48:59;15.20;71.70
3001;DHT22;1510;51.072;6.678;2022-07-29T04:51:26;15.20;71.70
3001;DHT22;1510;51.072;6.678;2022-07-29T04:53:52;15.30;70.80
3001;DHT22;1510;51.072;6.678;2022-07-29T04:56:19;15.40;68.90
3001;DHT22;1510;51.072;6.678;2022-07-29T04:58:46;15.50;69.20
3001;DHT22;1510;51.072;6.678;2022-07-29T05:01:13;15.50;68.50
3001;DHT22;1510;51.072;6.678;2022-07-29T05:03:40;15.60;68.00
3001;DHT22;1510;51.072;6.678;2022-07-29T05:06:08;15.60;67.00
3001;DHT22;1510;51.072;6.678;2022-07-29T05:08:35;15.80;66.30
3001;DHT22;1510;51.072;6.678;2022-07-29T05:11:02;15.80;66.30
3001;DHT22;1510;51.072;6.678;2022-07-29T05:13:28;15.90;65.00
3001;DHT22;1510;51.072;6.678;2022-07-29T05:15:55;16.00;65.00
3001;DHT22;1510;51.072;6.678;2022-07-29T05:18:23;16.00;64.80
3001;DHT22;1510;51.072;6.678;2022-07-29T05:20:50;16.20;64.90
3001;DHT22;1510;51.072;6.678;2022-07-29T05:23:18;16.20;64.50
3001;DHT22;1510;51.072;6.678;2022-07-29T05:25:45;16.20;64.00
3001;DHT22;1510;51.072;6.678;2022-07-29T05:28:12;16.40;64.00
3001;DHT22;1510;51.072;6.678;2022-07-29T05:30:39;16.50;65.00
3001;DHT22;1510;51.072;6.678;2022-07-29T05:33:06;16.50;64.00
3001;DHT22;1510;51.072;6.678;2022-07-29T05:35:32;16.60;63.40
3001;DHT22;1510;51.072;6.678;2022-07-29T05:38:00;16.70;64.20
3001;DHT22;1510;51.072;6.678;2022-07-29T05:40:28;16.70;62.70
3001;DHT22;1510;51.072;6.678;2022-07-29T05:42:55;16.90;62.70
3001;DHT22;1510;51.072;6.678;2022-07-29T05:45:22;17.00;61.50
3001;DHT22;1510;51.072;6.678;2022-07-29T05:47:49;17.10;59.80
3001;DHT22;1510;51.072;6.678;2022-07-29T05:50:16;17.30;59.40
3001;DHT22;1510;51.072;6.678;2022-07-29T05:52:43;17.40;59.40
3001;DHT22;1510;51.072;6.678;2022-07-29T05:55:10;17.50;59.50
3001;DHT22;1510;51.072;6.678;2022-07-29T05:57:38;17.60;58.40
3001;DHT22;1510;51.072;6.678;2022-07-29T06:00:05;17.70;58.40
3001;DHT22;1510;51.072;6.678;2022-07-29T06:02:33;17.80;56.60
3001;DHT22;1510;51.072;6.678;2022-07-29T06:04:59;17.90;58.00
3001;DHT22;1510;51.072;6.678;2022-07-29T06:07:26;17.80;56.50
3001;DHT22;1510;51.072;6.678;2022-07-29T06:09:53;17.90;55.00
3001;DHT22;1510;51.072;6.678;2022-07-29T06:12:19;17.80;54.80
3001;DHT22;1510;51.072;6.678;2022-07-29T06:14:47;17.80;54.70
3001;DHT22;1510;51.072;6.678;2022-07-29T06:17:15;17.70;53.70
3001;DHT22;1510;51.072;6.678;2022-07-29T06:19:54;17.80;53.80
3001;DHT22;1510;51.072;6.678;2022-07-29T06:22:21;17.70;53.70
3001;DHT22;1510;51.072;6.678;2022-07-29T06:24:48;17.70;53.70
3001;DHT22;1510;51.072;6.678;2022-07-29T06:27:15;17.60;54.20
3001;DHT22;1510;51.072;6.678;2022-07-29T06:29:42;17.50;55.10
3001;DHT22;1510;51.072;6.678;2022-07-29T06:32:10;17.50;56.10
3001;DHT22;1510;51.072;6.678;2022-07-29T06:34:36;17.50;56.30
3001;DHT22;1510;51.072;6.678;2022-07-29T06:37:06;17.40;56.50
3001;DHT22;1510;51.072;6.678;2022-07-29T06:39:34;17.50;57.60
3001;DHT22;1510;51.072;6.678;2022-07-29T06:42:01;17.30;59.40
3001;DHT22;1510;51.072;6.678;2022-07-29T06:44:28;17.20;62.60
3001;DHT22;1510;51.072;6.678;2022-07-29T06:46:55;17.10;64.90
3001;DHT22;1510;51.072;6.678;2022-07-29T06:49:23;16.90;67.30
3001;DHT22;1510;51.072;6.678;2022-07-29T06:51:51;16.70;72.90
3001;DHT22;1510;51.072;6.678;2022-07-29T06:54:18;16.60;78.00
3001;DHT22;1510;51.072;6.678;2022-07-29T06:56:45;16.40;84.60
3001;DHT22;1510;51.072;6.678;2022-07-29T06:59:12;16.40;90.20
3001;DHT22;1510;51.072;6.678;2022-07-29T07:01:41;16.40;90.90
3001;DHT22;1510;51.072;6.678;2022-07-29T07:04:09;16.40;89.70
3001;DHT22;1510;51.072;6.678;2022-07-29T07:06:37;16.30;87.40
3001;DHT22;1510;51.072;6.678;2022-07-29T07:09:04;16.20;93.00
3001;DHT22;1510;51.072;6.678;2022-07-29T07:11:31;16.20;94.50
3001;DHT22;1510;51.072;6.678;2022-07-29T07:13:58;16.20;95.20
3001;DHT22;1510;51.072;6.678;2022-07-29T07:16:25;16.20;93.70
3001;DHT22;1510;51.072;6.678;2022-07-29T07:18:52;16.20;95.00
3001;DHT22;1510;51.072;6.678;2022-07-29T07:21:18;16.20;94.80
3001;DHT22;1510;51.072;6.678;2022-07-29T07:27:02;16.20;93.20
3001;DHT22;1510;51.072;6.678;2022-07-29T07:29:29;16.10;91.90
3001;DHT22;1510;51.072;6.678;2022-07-29T07:35:32;16.00;94.30
3001;DHT22;1510;51.072;6.678;2022-07-29T07:38:32;16.20;92.90
3001;DHT22;1510;51.072;6.678;2022-07-29T07:41:16;16.20;94.60
3001;DHT22;1510;51.072;6.678;2022-07-29T07:43:50;16.30;95.30
3001;DHT22;1510;51.072;6.678;2022-07-29T07:46:17;16.60;95.20
3001;DHT22;1510;51.072;6.678;2022-07-29T07:48:44;16.50;96.70
3001;DHT22;1510;51.072;6.678;2022-07-29T07:51:11;16.60;96.20
3001;DHT22;1510;51.072;6.678;2022-07-29T07:53:49;16.70;96.30
3001;DHT22;1510;51.072;6.678;2022-07-29T07:56:36;17.00;96.00
3001;DHT22;1510;51.072;6.678;2022-07-29T08:31:57;17.90;84.20
3001;DHT22;1510;51.072;6.678;2022-07-29T08:34:44;17.90;84.20
3001;DHT22;1510;51.072;6.678;2022-07-29T08:40:39;18.40;75.10
3001;DHT22;1510;51.072;6.678;2022-07-29T08:43:10;18.60;71.70
3001;DHT22;1510;51.072;6.678;2022-07-29T08:45:43;18.70;71.80
3001;DHT22;1510;51.072;6.678;2022-07-29T08:48:30;19.00;68.70
3001;DHT22;1510;51.072;6.678;2022-07-29T08:51:21;19.20;67.00
3001;DHT22;1510;51.072;6.678;2022-07-29T08:55:20;19.50;67.80
3001;DHT22;1510;51.072;6.678;2022-07-29T08:57:37;19.80;66.70
3001;DHT22;1510;51.072;6.678;2022-07-29T09:00:24;19.60;64.20
3001;DHT22;1510;51.072;6.678;2022-07-29T09:02:56;19.60;61.90
3001;DHT22;1510;51.072;6.678;2022-07-29T09:05:26;19.70;59.00
3001;DHT22;1510;51.072;6.678;2022-07-29T09:07:53;19.50;62.40
3001;DHT22;1510;51.072;6.678;2022-07-29T09:10:36;19.30;59.20
3001;DHT22;1510;51.072;6.678;2022-07-29T09:13:05;19.20;63.10
3001;DHT22;1510;51.072;6.678;2022-07-29T09:15:32;19.20;66.80
3001;DHT22;1510;51.072;6.678;2022-07-29T09:18:45;19.30;68.10
3001;DHT22;1510;51.072;6.678;2022-07-29T09:24:40;19.40;65.00
3001;DHT22;1510;51.072;6.678;2022-07-29T09:27:09;19.40;62.80
3001;DHT22;1510;51.072;6.678;2022-07-29T09:29:36;19.50;66.70
3001;DHT22;1510;51.072;6.678;2022-07-29T09:32:08;19.50;62.20
3001;DHT22;1510;51.072;6.678;2022-07-29T09:34:35;19.50;63.40
3001;DHT22;1510;51.072;6.678;2022-07-29T09:37:04;19.70;65.30
3001;DHT22;1510;51.072;6.678;2022-07-29T09:39:33;19.70;67.40
3001;DHT22;1510;51.072;6.678;2022-07-29T09:42:01;19.90;63.20
3001;DHT22;1510;51.072;6.678;2022-07-29T09:44:41;19.90;61.90
3001;DHT22;1510;51.072;6.678;2022-07-29T09:47:09;19.80;61.60
3001;DHT22;1510;51.072;6.678;2022-07-29T09:49:50;19.80;58.40
3001;DHT22;1510;51.072;6.678;2022-07-29T09:52:18;19.80;59.20
3001;DHT22;1510;51.072;6.678;2022-07-29T09:54:45;19.70;57.50
3001;DHT22;1510;51.072;6.678;2022-07-29T09:57:22;19.80;54.40
3001;DHT22;1510;51.072;6.678;2022-07-29T09:59:56;19.90;54.90
3001;DHT22;1510;51.072;6.678;2022-07-29T10:02:28;19.90;52.40
3001;DHT22;1510;51.072;6.678;2022-07-29T10:04:55;20.60;55.10
3001;DHT22;1510;51.072;6.678;2022-07-29T10:07:24;20.80;50.80
3001;DHT22;1510;51.072;6.678;2022-07-29T10:09:53;21.00;48.30
3001;DHT22;1510;51.072;6.678;2022-07-29T10:12:21;21.20;50.00
3001;DHT22;1510;51.072;6.678;2022-07-29T10:14:48;21.50;47.60
3001;DHT22;1510;51.072;6.678;2022-07-29T10:17:16;21.40;47.80
3001;DHT22;1510;51.072;6.678;2022-07-29T10:19:44;21.30;45.60
3001;DHT22;1510;51.072;6.678;2022-07-29T10:22:11;21.30;43.20
3001;DHT22;1510;51.072;6.678;2022-07-29T10:24:39;21.20;44.20
3001;DHT22;1510;51.072;6.678;2022-07-29T10:27:07;21.10;46.90
3001;DHT22;1510;51.072;6.678;2022-07-29T10:29:34;20.80;44.10
3001;DHT22;1510;51.072;6.678;2022-07-29T10:32:26;20.80;39.90
3001;DHT22;1510;51.072;6.678;2022-07-29T10:45:38;21.70;36.70
3001;DHT22;1510;51.072;6.678;2022-07-29T10:48:27;22.00;36.40
3001;DHT22;1510;51.072;6.678;2022-07-29T10:51:33;22.30;34.90
3001;DHT22;1510;51.072;6.678;2022-07-29T10:54:45;22.40;32.90
3001;DHT22;1510;51.072;6.678;2022-07-29T10:57:19;22.80;30.30
3001;DHT22;1510;51.072;6.678;2022-07-29T10:59:47;23.40;29.50
3001;DHT22;1510;51.072;6.678;2022-07-29T11:02:42;23.70;26.70
3001;DHT22;1510;51.072;6.678;2022-07-29T11:05:11;24.30;22.20
3001;DHT22;1510;51.072;6.678;2022-07-29T11:07:40;24.30;21.20
3001;DHT22;1510;51.072;6.678;2022-07-29T11:10:26;24.50;21.00
3001;DHT22;1510;51.072;6.678;2022-07-29T11:12:54;24.50;20.50
3001;DHT22;1510;51.072;6.678;2022-07-29T11:15:21;24.90;19.20
3001;DHT22;1510;51.072;6.678;2022-07-29T11:18:08;25.10;20.60
3001;DHT22;1510;51.072;6.678;2022-07-29T11:20:40;25.00;14.70
3001;DHT22;1510;51.072;6.678;2022-07-29T11:23:21;25.40;16.80
3001;DHT22;1510;51.072;6.678;2022-07-29T11:26:18;25.70;15.40
3001;DHT22;1510;51.072;6.678;2022-07-29T11:28:55;24.90;15.70
3001;DHT22;1510;51.072;6.678;2022-07-29T11:31:35;25.40;11.60
3001;DHT22;1510;51.072;6.678;2022-07-29T11:34:19;26.30;10.90
3001;DHT22;1510;51.072;6.678;2022-07-29T11:37:20;25.80;13.60
3001;DHT22;1510;51.072;6.678;2022-07-29T11:40:08;24.60;13.40
3001;DHT22;1510;51.072;6.678;2022-07-29T11:42:45;24.30;10.70
3001;DHT22;1510;51.072;6.678;2022-07-29T11:45:18;25.30;11.10
3001;DHT22;1510;51.072;6.678;2022-07-29T11:47:51;25.60;12.50
3001;DHT22;1510;51.072;6.678;2022-07-29T11:50:29;25.90;13.30
3001;DHT22;1510;51.072;6.678;2022-07-29T11:52:56;26.50;7.60
3001;DHT22;1510;51.072;6.678;2022-07-29T11:55:24;26.50;8.90
3001;DHT22;1510;51.072;6.678;2022-07-29T11:57:53;26.50;8.90
3001;DHT22;1510;51.072;6.678;2022-07-29T12:00:26;26.90;7.60
3001;DHT22;1510;51.072;6.678;2022-07-29T12:02:54;26.30;7.30
3001;DHT22;1510;51.072;6.678;2022-07-29T12:05:34;25.30;11.30
3001;DHT22;1510;51.072;6.678;2022-07-29T12:08:06;24.70;15.60
3001;DHT22;1510;51.072;6.678;2022-07-29T12:10:33;25.10;18.80
3001;DHT22;1510;51.072;6.678;2022-07-29T12:13:00;25.00;19.50
3001;DHT22;1510;51.072;6.678;2022-07-29T12:15:28;24.60;18.00
3001;DHT22;1510;51.072;6.678;2022-07-29T12:17:55;24.30;20.50
3001;DHT22;1510;51.072;6.678;2022-07-29T12:20:24;24.10;19.50
3001;DHT22;1510;51.072;6.678;2022-07-29T12:22:51;24.50;20.80
3001;DHT22;1510;51.072;6.678;2022-07-29T12:25:19;25.30;18.70
3001;DHT22;1510;51.072;6.678;2022-07-29T12:27:47;25.40;16.00
3001;DHT22;1510;51.072;6.678;2022-07-29T12:30:23;25.70;14.60
3001;DHT22;1510;51.072;6.678;2022-07-29T12:33:01;26.10;13.50
3001;DHT22;1510;51.072;6.678;2022-07-29T12:35:36;26.00;10.50
3001;DHT22;1510;51.072;6.678;2022-07-29T12:38:03;26.50;11.90
3001;DHT22;1510;51.072;6.678;2022-07-29T12:40:30;26.60;12.70
3001;DHT22;1510;51.072;6.678;2022-07-29T12:43:11;26.80;11.30
3001;DHT22;1510;51.072;6.678;2022-07-29T12:45:39;26.70;10.30
3001;DHT22;1510;51.072;6.678;2022-07-29T12:48:08;26.60;8.40
3001;DHT22;1510;51.072;6.678;2022-07-29T12:50:35;26.90;9.20
3001;DHT22;1510;51.072;6.678;2022-07-29T12:53:10;27.60;5.70
3001;DHT22;1510;51.072;6.678;2022-07-29T12:55:42;27.40;5.40
3001;DHT22;1510;51.072;6.678;2022-07-29T12:58:09;27.40;9.50
3001;DHT22;1510;51.072;6.678;2022-07-29T13:00:36;27.00;9.20
3001;DHT22;1510;51.072;6.678;2022-07-29T13:03:03;27.00;8.70
3001;DHT22;1510;51.072;6.678;2022-07-29T13:05:42;27.00;8.20
3001;DHT22;1510;51.072;6.678;2022-07-29T13:08:11;27.30;8.10
3001;DHT22;1510;51.072;6.678;2022-07-29T13:10:39;27.10;9.30
3001;DHT22;1510;51.072;6.678;2022-07-29T13:13:08;27.50;6.80
3001;DHT22;1510;51.072;6.678;2022-07-29T13:15:36;27.60;4.50
3001;DHT22;1510;51.072;6.678;2022-07-29T13:18:03;27.20;6.60
3001;DHT22;1510;51.072;6.678;2022-07-29T13:20:30;27.50;6.40
3001;DHT22;1510;51.072;6.678;2022-07-29T13:22:59;27.70;5.40
3001;DHT22;1510;51.072;6.678;2022-07-29T13:25:27;26.50;5.60
3001;DHT22;1510;51.072;6.678;2022-07-29T13:27:54;26.90;6.60
3001;DHT22;1510;51.072;6.678;2022-07-29T13:30:22;27.00;5.50
3001;DHT22;1510;51.072;6.678;2022-07-29T13:32:50;27.50;5.50
3001;DHT22;1510;51.072;6.678;2022-07-29T13:35:17;26.80;4.20
3001;DHT22;1510;51.072;6.678;2022-07-29T13:37:44;27.00;5.30
3001;DHT22;1510;51.072;6.678;2022-07-29T13:40:13;27.30;4.20
3001;DHT22;1510;51.072;6.678;2022-07-29T13:42:40;27.40;3.40
3001;DHT22;1510;51.072;6.678;2022-07-29T13:45:13;27.20;1.50
3001;DHT22;1510;51.072;6.678;2022-07-29T13:48:08;27.50;1.60
3001;DHT22;1510;51.072;6.678;2022-07-29T13:50:56;27.20;1.40
3001;DHT22;1510;51.072;6.678;2022-07-29T13:53:23;26.90;2.20
3001;DHT22;1510;51.072;6.678;2022-07-29T13:55:51;26.80;4.20
3001;DHT22;1510;51.072;6.678;2022-07-29T13:58:18;26.70;4.80
3001;DHT22;1510;51.072;6.678;2022-07-29T14:00:45;27.30;5.20
3001;DHT22;1510;51.072;6.678;2022-07-29T14:03:12;27.20;1.40
3001;DHT22;1510;51.072;6.678;2022-07-29T14:05:39;27.70;3.00
3001;DHT22;1510;51.072;6.678;2022-07-29T14:08:06;27.60;4.40
3001;DHT22;1510;51.072;6.678;2022-07-29T14:10:33;27.20;1.50
3001;DHT22;1510;51.072;6.678;2022-07-29T14:13:04;27.20;2.20
3001;DHT22;1510;51.072;6.678;2022-07-29T14:15:31;27.10;5.40
3001;DHT22;1510;51.072;6.678;2022-07-29T14:17:57;26.90;4.50
3001;DHT22;1510;51.072;6.678;2022-07-29T14:20:24;26.90;4.00
3001;DHT22;1510;51.072;6.678;2022-07-29T14:22:53;27.20;5.70
3001;DHT22;1510;51.072;6.678;2022-07-29T14:25:22;27.20;1.40
3001;DHT22;1510;51.072;6.678;2022-07-29T14:27:49;27.60;2.50
3001;DHT22;1510;51.072;6.678;2022-07-29T14:30:20;27.30;1.00
3001;DHT22;1510;51.072;6.678;2022-07-29T14:32:47;27.40;1.00
3001;DHT22;1510;51.072;6.678;2022-07-29T14:35:14;27.60;1.20
3001;DHT22;1510;51.072;6.678;2022-07-29T14:37:41;27.60;1.00
3001;DHT22;1510;51.072;6.678;2022-07-29T14:40:08;26.70;1.00
3001;DHT22;1510;51.072;6.678;2022-07-29T14:42:35;26.80;1.00
3001;DHT22;1510;51.072;6.678;2022-07-29T14:45:03;26.10;2.30
3001;DHT22;1510;51.072;6.678;2022-07-29T14:47:55;25.90;4.20
3001;DHT22;1510;51.072;6.678;2022-07-29T15:01:06;26.60;1.00
3001;DHT22;1510;51.072;6.678;2022-07-29T15:04:26;26.10;3.20
3001;DHT22;1510;51.072;6.678;2022-07-29T15:07:20;25.90;1.00
3001;DHT22;1510;51.072;6.678;2022-07-29T15:09:47;25.80;1.00
3001;DHT22;1510;51.072;6.678;2022-07-29T15:12:16;25.70;1.00
3001;DHT22;1510;51.072;6.678;2022-07-29T15:14:43;25.90;1.20
3001;DHT22;1510;51.072;6.678;2022-07-29T15:17:14;26.50;1.00
3001;DHT22;1510;51.072;6.678;2022-07-29T15:19:43;26.60;1.00
3001;DHT22;1510;51.072;6.678;2022-07-29T15:22:09;26.70;1.00
3001;DHT22;1510;51.072;6.678;2022-07-29T15:24:36;27.00;1.00
3001;DHT22;1510;51.072;6.678;2022-07-29T15:27:03;26.90;1.00
3001;DHT22;1510;51.072;6.678;2022-07-29T15:29:30;26.70;1.00
3001;DHT22;1510;51.072;6.678;2022-07-29T15:31:56;26.70;1.00
3001;DHT22;1510;51.072;6.678;2022-07-29T15:34:23;27.10;1.00
3001;DHT22;1510;51.072;6.678;2022-07-29T15:36:51;27.00;1.00
3001;DHT22;1510;51.072;6.678;2022-07-29T15:39:18;27.10;1.00
3001;DHT22;1510;51.072;6.678;2022-07-29T15:41:45;27.70;1.00
3001;DHT22;1510;51.072;6.678;2022-07-29T15:44:12;27.00;1.00
3001;DHT22;1510;51.072;6.678;2022-07-29T15:46:40;26.50;1.00
3001;DHT22;1510;51.072;6.678;2022-07-29T15:49:25;26.20;1.00
3001;DHT22;1510;51.072;6.678;2022-07-29T15:51:58;26.10;1.00
3001;DHT22;1510;51.072;6.678;2022-07-29T15:54:25;26.10;1.00
3001;DHT22;1510;51.072;6.678;2022-07-29T15:56:52;26.00;1.00
3001;DHT22;1510;51.072;6.678;2022-07-29T15:59:19;26.40;1.00
3001;DHT22;1510;51.072;6.678;2022-07-29T16:01:45;26.70;1.00
3001;DHT22;1510;51.072;6.678;2022-07-29T16:04:12;26.80;1.00
3001;DHT22;1510;51.072;6.678;2022-07-29T16:06:39;27.00;1.00
3001;DHT22;1510;51.072;6.678;2022-07-29T16:09:07;26.70;1.00
3001;DHT22;1510;51.072;6.678;2022-07-29T16:11:34;26.80;1.00
3001;DHT22;1510;51.072;6.678;2022-07-29T16:14:01;26.80;1.00
3001;DHT22;1510;51.072;6.678;2022-07-29T16:16:29;26.50;1.00
3001;DHT22;1510;51.072;6.678;2022-07-29T16:18:56;26.10;1.00
3001;DHT22;1510;51.072;6.678;2022-07-29T16:21:23;26.20;3.60
3001;DHT22;1510;51.072;6.678;2022-07-29T16:23:50;26.30;3.10
3001;DHT22;1510;51.072;6.678;2022-07-29T16:26:18;25.90;3.70
3001;DHT22;1510;51.072;6.678;2022-07-29T16:28:45;25.90;6.40
3001;DHT22;1510;51.072;6.678;2022-07-29T16:31:12;25.50;6.20
3001;DHT22;1510;51.072;6.678;2022-07-29T16:33:39;25.30;6.90
3001;DHT22;1510;51.072;6.678;2022-07-29T16:36:06;25.00;8.10
3001;DHT22;1510;51.072;6.678;2022-07-29T16:38:32;25.70;8.40
3001;DHT22;1510;51.072;6.678;2022-07-29T16:40:59;26.40;6.00
3001;DHT22;1510;51.072;6.678;2022-07-29T16:43:27;27.20;2.20
3001;DHT22;1510;51.072;6.678;2022-07-29T16:45:54;27.60;1.60
3001;DHT22;1510;51.072;6.678;2022-07-29T16:48:21;27.80;1.00
3001;DHT22;1510;51.072;6.678;2022-07-29T16:50:48;28.50;1.00
3001;DHT22;1510;51.072;6.678;2022-07-29T16:53:15;28.00;1.00
3001;DHT22;1510;51.072;6.678;2022-07-29T16:55:42;28.10;1.00
3001;DHT22;1510;51.072;6.678;2022-07-29T16:58:10;27.80;1.00
3001;DHT22;1510;51.072;6.678;2022-07-29T17:00:38;28.10;1.00
3001;DHT22;1510;51.072;6.678;2022-07-29T17:03:05;27.90;1.00
3001;DHT22;1510;51.072;6.678;2022-07-29T17:05:33;28.20;2.40
3001;DHT22;1510;51.072;6.678;2022-07-29T17:08:00;28.30;1.00
3001;DHT22;1510;51.072;6.678;2022-07-29T17:10:27;28.50;1.00
3001;DHT22;1510;51.072;6.678;2022-07-29T17:12:54;28.50;2.20
3001;DHT22;1510;51.072;6.678;2022-07-29T17:15:21;28.40;1.00
3001;DHT22;1510;51.072;6.678;2022-07-29T17:17:49;28.30;1.00
3001;DHT22;1510;51.072;6.678;2022-07-29T17:20:16;28.20;1.00
3001;DHT22;1510;51.072;6.678;2022-07-29T17:22:43;28.30;1.00
3001;DHT22;1510;51.072;6.678;2022-07-29T17:25:10;28.60;1.00
3001;DHT22;1510;51.072;6.678;2022-07-29T17:27:38;28.30;1.00
3001;DHT22;1510;51.072;6.678;2022-07-29T17:30:08;28.00;1.00
3001;DHT22;1510;51.072;6.678;2022-07-29T17:32:35;27.40;1.00
3001;DHT22;1510;51.072;6.678;2022-07-29T17:35:05;27.80;1.00